Time;durP1;ratioP1;P1;durP2;ratioP2;P2;SDS_P1;SDS_P2;PMS_P1;PMS_P2;Temp;Humidity;BMP_temperature;BMP_pressure;BME280_temperature;BME280_humidity;BME280_pressure;Samples;Min_cycle;Max_cycle;Signal;HPM_P1;HPM_P2
2022/04/21 00:00:30;;;;;;;3.67;2.30;;;;;;;;;;5085202;28;20024;-79
2022/04/21 00:02:56;;;;;;;4.75;2.53;;;11.00;64.10;;;;;;5092018;28;20031;-80
2022/04/21 00:05:23;;;;;;;6.40;3.03;;;10.90;64.90;;;;;;5067091;28;20048;-80
2022/04/21 00:07:49;;;;;;;4.32;2.45;;;10.80;65.30;;;;;;5054352;28;20029;-80
2022/04/21 00:10:18;;;;;;;4.20;2.60;;;10.70;65.90;;;;;;5080022;28;20140;-80
2022/04/21 00:12:44;;;;;;;3.95;2.50;;;10.60;66.60;;;;;;5081934;28;20021;-78
2022/04/21 00:15:11;;;;;;;4.13;2.60;;;10.70;66.30;;;;;;5085494;28;20039;-80
2022/04/21 00:17:37;;;;;;;7.28;2.58;;;10.80;66.20;;;;;;5085333;28;20040;-81
2022/04/21 00:20:05;;;;;;;3.78;2.47;;;10.70;66.40;;;;;;5076719;28;20048;-81
2022/04/21 00:25:19;;;;;;;3.97;2.60;;;10.60;66.80;;;;;;5088661;28;20040;-82
2022/04/21 00:27:45;;;;;;;4.75;2.25;;;10.60;67.00;;;;;;5081380;28;20025;-79
2022/04/21 00:30:12;;;;;;;4.68;2.50;;;10.80;67.20;;;;;;5087879;28;20054;-80
2022/04/21 00:32:42;;;;;;;4.28;2.63;;;10.60;67.20;;;;;;5093981;28;20048;-79
2022/04/21 00:35:13;;;;;;;4.72;2.40;;;10.60;67.30;;;;;;5072056;28;20033;-78
2022/04/21 00:37:50;;;;;;;6.10;2.65;;;10.60;67.60;;;;;;5065588;28;20029;-80
2022/04/21 00:40:17;;;;;;;4.38;2.35;;;10.50;67.80;;;;;;5090659;28;20039;-81
2022/04/21 00:42:44;;;;;;;4.03;2.40;;;10.50;68.00;;;;;;5093820;28;20017;-80
2022/04/21 00:45:12;;;;;;;5.05;2.53;;;10.40;68.30;;;;;;5093112;28;20016;-79
2022/04/21 00:47:45;;;;;;;5.25;2.10;;;10.30;68.70;;;;;;5071715;28;20028;-79
2022/04/21 00:50:24;;;;;;;4.63;2.50;;;11.20;69.50;;;;;;5081979;28;20020;-78
2022/04/21 00:52:52;;;;;;;5.35;2.53;;;10.20;69.50;;;;;;5069718;28;20540;-79
2022/04/21 00:55:19;;;;;;;5.85;2.70;;;10.20;69.90;;;;;;5084605;28;20040;-79
2022/04/21 00:57:46;;;;;;;3.92;2.40;;;10.30;70.30;;;;;;5089300;28;20031;-80
2022/04/21 01:00:15;;;;;;;6.60;2.35;;;10.20;70.20;;;;;;5057283;28;20047;-79
2022/04/21 01:02:49;;;;;;;6.88;2.67;;;10.30;70.80;;;;;;5097170;28;21467;-80
2022/04/21 01:07:51;;;;;;;6.28;2.60;;;;;;;;;;767895;22;20307;-84
2022/04/21 01:10:17;;;;;;;6.00;2.40;;;;;;;;;;5079438;28;20040;-86
2022/04/21 01:12:43;;;;;;;4.88;2.55;;;;;;;;;;5104194;28;20028;-88
2022/04/21 01:15:10;;;;;;;4.05;2.25;;;10.20;72.90;;;;;;5097281;28;20029;-87
2022/04/21 01:17:38;;;;;;;3.35;2.60;;;10.20;73.30;;;;;;5085166;28;20032;-87
2022/04/21 01:20:06;;;;;;;4.15;2.30;;;10.20;73.30;;;;;;5086930;28;20035;-83
2022/04/21 01:22:32;;;;;;;3.30;2.47;;;10.10;73.90;;;;;;5085164;28;20428;-85
2022/04/21 01:24:58;;;;;;;5.05;2.60;;;;;;;;;;5076816;28;20021;-83
2022/04/21 01:27:27;;;;;;;5.32;2.78;;;10.10;74.10;;;;;;5078883;28;20031;-86
2022/04/21 01:29:53;;;;;;;4.28;2.58;;;10.00;74.80;;;;;;5088688;28;20303;-86
2022/04/21 01:32:19;;;;;;;5.35;2.53;;;;;;;;;;5088635;28;20028;-87
2022/04/21 01:34:45;;;;;;;5.07;2.60;;;10.00;74.90;;;;;;5108517;28;20032;-87
2022/04/21 01:42:40;;;;;;;4.28;2.30;;;10.00;76.70;;;;;;5093824;28;20473;-85
2022/04/21 01:45:07;;;;;;;5.88;2.67;;;10.30;77.40;;;;;;5098600;28;20063;-83
2022/04/21 01:47:32;;;;;;;4.45;2.50;;;9.70;77.70;;;;;;5101068;28;20466;-82
2022/04/21 01:49:58;;;;;;;4.20;2.60;;;;;;;;;;5073334;28;20091;-86
2022/04/21 01:52:24;;;;;;;6.40;2.53;;;9.70;78.30;;;;;;5085530;28;20138;-84
2022/04/21 01:54:50;;;;;;;6.07;2.55;;;9.90;79.30;;;;;;5079228;28;20500;-83
2022/04/21 01:57:19;;;;;;;5.38;2.50;;;12.40;82.00;;;;;;5081605;28;20035;-83
2022/04/21 01:59:46;;;;;;;6.40;2.80;;;;;;;;;;5079632;28;20036;-83
2022/04/21 02:02:12;;;;;;;5.20;2.63;;;9.70;80.30;;;;;;5076761;28;20028;-85
2022/04/21 02:04:37;;;;;;;4.53;2.70;;;10.90;82.00;;;;;;5087911;28;20044;-81
2022/04/21 02:07:04;;;;;;;6.47;2.78;;;9.70;82.00;;;;;;5080311;28;20038;-84
2022/04/21 02:09:30;;;;;;;5.78;2.70;;;9.70;84.50;;;;;;5097474;28;20035;-85
2022/04/21 02:11:56;;;;;;;5.53;3.60;;;;;;;;;;5101807;28;20032;-80
2022/04/21 02:14:21;;;;;;;4.05;2.70;;;9.70;83.60;;;;;;5077300;28;20032;-82
2022/04/21 02:16:47;;;;;;;5.65;2.97;;;;;;;;;;5093024;28;20573;-85
2022/04/21 02:19:13;;;;;;;3.53;2.70;;;9.60;84.80;;;;;;5073546;28;20074;-83
2022/04/21 02:21:39;;;;;;;4.05;2.72;;;12.70;88.10;;;;;;5077583;28;20051;-83
2022/04/21 02:24:07;;;;;;;4.07;2.60;;;9.60;87.70;;;;;;5081422;28;20032;-83
2022/04/21 02:26:33;;;;;;;4.20;2.63;;;9.60;88.10;;;;;;5097051;28;20089;-85
2022/04/21 02:28:58;;;;;;;4.68;3.13;;;11.00;89.50;;;;;;5087303;28;20020;-85
2022/04/21 02:31:24;;;;;;;4.03;2.80;;;10.00;89.70;;;;;;5098270;28;20570;-86
2022/04/21 02:33:49;;;;;;;4.68;2.85;;;10.70;90.00;;;;;;5102653;28;20039;-85
2022/04/21 02:36:15;;;;;;;5.60;3.10;;;;;;;;;;5082694;28;20039;-84
2022/04/21 02:38:41;;;;;;;5.90;2.92;;;9.60;90.50;;;;;;5085200;28;20102;-86
2022/04/21 02:41:07;;;;;;;5.72;2.70;;;9.70;90.90;;;;;;5082017;28;20024;-86
2022/04/21 02:43:33;;;;;;;4.47;3.10;;;10.40;91.30;;;;;;5090750;28;20034;-84
2022/04/21 02:45:59;;;;;;;4.03;2.50;;;;;;;;;;5086553;28;20118;-84
2022/04/21 02:48:25;;;;;;;5.85;2.75;;;;;;;;;;5102870;28;20062;-82
2022/04/21 02:50:51;;;;;;;4.35;2.80;;;;;;;;;;5077574;28;20032;-86
2022/04/21 02:53:18;;;;;;;5.97;2.88;;;;;;;;;;5109826;28;20028;-86
2022/04/21 02:58:28;;;;;;;6.68;3.58;;;;;;;;;;5100639;28;20053;-84
2022/04/21 03:00:55;;;;;;;5.03;2.80;;;;;;;;;;5103137;28;20024;-84
2022/04/21 03:03:20;;;;;;;6.38;3.03;;;;;;;;;;5083022;28;20028;-85
2022/04/21 03:05:46;;;;;;;6.13;3.22;;;9.40;94.10;;;;;;5100126;28;20070;-86
2022/04/21 03:08:12;;;;;;;5.15;3.05;;;12.00;95.50;;;;;;5085186;28;20035;-84
2022/04/21 03:10:37;;;;;;;5.75;3.30;;;9.40;95.50;;;;;;5084613;28;20032;-86
2022/04/21 03:13:03;;;;;;;4.55;3.40;;;9.40;95.60;;;;;;5098453;28;20028;-85
2022/04/21 03:15:30;;;;;;;6.13;2.95;;;;;;;;;;5102280;28;20028;-84
2022/04/21 03:17:56;;;;;;;6.45;3.33;;;;;;;;;;5076959;28;20025;-85
2022/04/21 03:25:50;;;;;;;7.60;3.42;;;9.30;97.00;;;;;;5114330;28;20119;-84
2022/04/21 03:28:16;;;;;;;7.03;3.08;;;;;;;;;;5093157;28;20024;-84
2022/04/21 03:30:42;;;;;;;7.05;3.10;;;9.30;97.40;;;;;;5098393;28;20026;-83
2022/04/21 03:33:08;;;;;;;5.68;3.30;;;;;;;;;;5081107;28;20119;-85
2022/04/21 03:35:35;;;;;;;6.97;2.80;;;9.20;98.10;;;;;;5077049;28;20100;-84
2022/04/21 03:38:01;;;;;;;6.18;3.42;;;;;;;;;;5100587;28;20063;-84
2022/04/21 03:40:27;;;;;;;6.80;3.92;;;;;;;;;;5076701;28;20085;-83
2022/04/21 03:42:52;;;;;;;5.20;3.10;;;9.10;99.00;;;;;;5102829;28;20027;-85
2022/04/21 03:45:18;;;;;;;5.72;3.40;;;12.20;99.90;;;;;;5099075;28;20106;-86
2022/04/21 03:47:44;;;;;;;5.43;3.30;;;;;;;;;;5097892;28;20052;-83
2022/04/21 03:50:10;;;;;;;5.05;3.58;;;9.10;99.60;;;;;;5107148;28;20405;-85
2022/04/21 03:52:36;;;;;;;7.63;3.67;;;;;;;;;;5082290;28;20051;-85
2022/04/21 03:55:04;;;;;;;4.93;3.80;;;;;;;;;;5097796;28;20038;-85
2022/04/21 03:57:30;;;;;;;6.97;3.88;;;;;;;;;;5082226;28;20024;-84
2022/04/21 03:59:56;;;;;;;7.40;3.88;;;;;;;;;;5059789;28;20029;-85
2022/04/21 04:02:22;;;;;;;6.32;4.13;;;9.00;99.90;;;;;;5085105;28;20024;-85
2022/04/21 04:04:48;;;;;;;6.18;3.80;;;9.50;99.90;;;;;;5096675;28;20086;-86
2022/04/21 04:12:42;;;;;;;5.28;3.58;;;10.60;99.90;;;;;;5086021;28;20050;-87
2022/04/21 04:15:10;;;;;;;9.30;4.45;;;8.80;99.90;;;;;;5082287;28;20069;-85
2022/04/21 04:17:36;;;;;;;7.40;4.05;;;8.90;99.90;;;;;;5083693;28;20039;-83
2022/04/21 04:20:04;;;;;;;8.10;4.25;;;11.40;99.90;;;;;;5101316;28;20481;-84
2022/04/21 04:22:35;;;;;;;5.40;3.92;;;8.80;99.90;;;;;;5083096;28;20107;-82
2022/04/21 04:25:01;;;;;;;5.97;4.07;;;;;;;;;;5100261;28;20047;-84
2022/04/21 04:27:26;;;;;;;6.28;3.97;;;8.80;99.90;;;;;;5076716;28;20051;-84
2022/04/21 04:29:52;;;;;;;7.15;4.43;;;9.10;99.90;;;;;;5086965;28;20046;-83
2022/04/21 04:32:17;;;;;;;8.98;4.40;;;10.60;99.90;;;;;;5085510;28;20027;-83
2022/04/21 04:34:44;;;;;;;6.28;3.83;;;;;;;;;;5089157;28;20093;-84
2022/04/21 04:37:09;;;;;;;6.20;4.05;;;8.80;99.90;;;;;;5085982;28;20028;-83
2022/04/21 04:39:35;;;;;;;7.47;4.30;;;10.10;99.90;;;;;;5100823;28;20493;-83
2022/04/21 04:42:16;;;;;;;7.55;4.07;;;10.80;99.90;;;;;;5108264;28;20091;-84
2022/04/21 04:44:42;;;;;;;6.93;3.97;;;8.80;99.90;;;;;;5101213;28;20023;-83
2022/04/21 04:47:07;;;;;;;6.35;4.25;;;8.70;99.90;;;;;;5084765;28;20078;-86
2022/04/21 04:49:33;;;;;;;6.53;3.85;;;;;;;;;;5104354;28;20036;-86
2022/04/21 04:51:59;;;;;;;6.43;4.50;;;8.70;99.90;;;;;;5079250;28;20028;-85
2022/04/21 04:54:25;;;;;;;6.95;4.30;;;8.90;99.90;;;;;;5095893;28;20020;-86
2022/04/21 04:56:51;;;;;;;5.60;4.35;;;8.70;99.90;;;;;;5085715;28;20027;-87
2022/04/21 04:59:17;;;;;;;6.15;4.10;;;8.60;99.90;;;;;;5079739;28;20057;-87
2022/04/21 05:01:45;;;;;;;8.50;4.30;;;8.70;99.90;;;;;;5099611;28;20028;-86
2022/04/21 05:04:19;;;;;;;6.95;4.30;;;12.40;99.90;;;;;;5099950;28;20024;-84
2022/04/21 05:06:50;;;;;;;9.52;4.65;;;8.70;99.90;;;;;;5081573;28;20056;-85
2022/04/21 05:09:21;;;;;;;7.50;4.60;;;10.40;99.90;;;;;;5102940;28;20030;-86
2022/04/21 05:11:52;;;;;;;6.13;4.18;;;8.80;99.90;;;;;;5103941;28;20032;-84
2022/04/21 05:14:19;;;;;;;10.05;4.75;;;;;;;;;;5098758;28;20078;-85
2022/04/21 05:16:45;;;;;;;6.45;4.15;;;8.80;99.90;;;;;;5096825;28;20520;-84
2022/04/21 05:19:15;;;;;;;7.45;4.55;;;10.50;99.90;;;;;;5089102;28;20028;-84
2022/04/21 05:21:42;;;;;;;8.02;4.32;;;8.80;99.90;;;;;;5092287;28;20028;-85
2022/04/21 05:24:10;;;;;;;7.30;3.92;;;8.90;99.90;;;;;;5102606;28;20043;-83
2022/04/21 05:26:40;;;;;;;8.15;4.45;;;;;;;;;;5079734;28;20032;-81
2022/04/21 05:31:59;;;;;;;5.93;4.35;;;8.90;99.90;;;;;;5098733;28;20047;-83
2022/04/21 05:34:26;;;;;;;9.18;4.60;;;9.10;99.90;;;;;;5102086;28;20020;-86
2022/04/21 05:36:54;;;;;;;8.68;4.28;;;10.70;99.90;;;;;;5091012;28;20109;-81
2022/04/21 05:39:20;;;;;;;7.22;4.57;;;9.20;99.90;;;;;;5077366;28;20028;-83
2022/04/21 05:41:47;;;;;;;6.18;4.30;;;;;;;;;;5081098;28;20380;-83
2022/04/21 05:44:13;;;;;;;6.80;4.45;;;9.20;99.90;;;;;;5062667;28;20036;-84
2022/04/21 05:46:39;;;;;;;8.35;4.20;;;9.40;99.90;;;;;;5096650;28;20028;-85
2022/04/21 05:49:05;;;;;;;8.18;4.07;;;9.40;99.90;;;;;;5075694;28;20028;-85
2022/04/21 05:51:31;;;;;;;7.15;4.30;;;9.50;99.90;;;;;;5083628;28;20023;-84
2022/04/21 05:53:58;;;;;;;8.23;4.75;;;9.40;99.90;;;;;;5073459;28;20043;-83
2022/04/21 05:56:24;;;;;;;6.38;4.38;;;9.60;99.90;;;;;;5093840;28;20032;-83
2022/04/21 05:58:53;;;;;;;7.55;4.70;;;9.60;99.90;;;;;;5081136;28;20028;-81
2022/04/21 06:01:19;;;;;;;7.88;4.10;;;10.90;99.90;;;;;;5074408;28;20043;-84
2022/04/21 06:03:45;;;;;;;6.50;4.15;;;9.90;99.90;;;;;;5101463;28;20024;-86
2022/04/21 06:06:10;;;;;;;7.40;4.85;;;11.80;99.90;;;;;;5085245;28;20043;-84
2022/04/21 06:08:37;;;;;;;5.85;4.13;;;10.10;99.60;;;;;;5087538;28;20026;-85
2022/04/21 06:11:03;;;;;;;8.35;4.88;;;11.10;99.50;;;;;;5081141;28;20035;-85
2022/04/21 06:13:30;;;;;;;6.32;4.90;;;10.30;98.60;;;;;;5051561;28;20133;-86
2022/04/21 06:15:56;;;;;;;7.22;4.55;;;10.30;98.50;;;;;;5093061;28;20055;-85
2022/04/21 06:18:23;;;;;;;6.93;4.22;;;10.30;98.50;;;;;;5064697;28;20027;-87
2022/04/21 06:20:50;;;;;;;9.82;4.82;;;10.20;98.30;;;;;;5059249;28;20039;-86
2022/04/21 06:23:15;;;;;;;7.63;4.80;;;11.90;98.40;;;;;;5080618;28;20035;-86
2022/04/21 06:25:42;;;;;;;7.32;4.78;;;10.50;97.80;;;;;;5087798;28;20028;-87
2022/04/21 06:28:09;;;;;;;6.57;4.72;;;10.90;98.10;;;;;;5062121;28;20123;-83
2022/04/21 06:30:35;;;;;;;6.20;4.30;;;10.50;97.70;;;;;;5082914;28;20430;-83
2022/04/21 06:33:00;;;;;;;8.55;5.03;;;10.80;97.80;;;;;;5079196;28;20056;-85
2022/04/21 06:35:27;;;;;;;7.82;4.80;;;13.20;98.10;;;;;;5051158;28;20032;-85
2022/04/21 06:37:54;;;;;;;8.00;4.78;;;10.80;97.10;;;;;;5081301;28;20032;-85
2022/04/21 06:40:20;;;;;;;7.18;5.13;;;13.90;97.60;;;;;;5064913;28;20028;-84
2022/04/21 06:42:46;;;;;;;7.20;4.35;;;12.20;96.70;;;;;;5080983;28;20021;-84
2022/04/21 06:48:02;;;;;;;9.05;5.40;;;12.30;96.30;;;;;;5076681;28;20087;-85
2022/04/21 06:50:30;;;;;;;7.75;4.90;;;11.10;96.00;;;;;;5083410;28;20036;-84
2022/04/21 06:52:55;;;;;;;9.25;5.35;;;11.20;95.90;;;;;;5064642;28;20024;-83
2022/04/21 06:55:22;;;;;;;9.52;4.97;;;11.70;95.60;;;;;;5066912;28;20081;-82
2022/04/21 06:57:49;;;;;;;6.65;4.20;;;10.70;95.40;;;;;;5076434;28;20577;-85
2022/04/21 07:00:17;;;;;;;7.70;5.35;;;11.20;95.40;;;;;;5077276;28;20021;-81
2022/04/21 07:02:42;;;;;;;5.68;4.55;;;11.50;94.90;;;;;;5070408;28;20042;-85
2022/04/21 07:05:12;;;;;;;7.03;5.00;;;11.60;94.70;;;;;;5078410;28;20088;-84
2022/04/21 07:10:06;;;;;;;7.20;4.78;;;11.60;94.40;;;;;;5058026;28;20055;-80
2022/04/21 07:12:33;;;;;;;7.00;5.35;;;11.70;93.90;;;;;;5046754;28;20698;-80
2022/04/21 07:15:00;;;;;;;8.63;5.35;;;11.70;94.10;;;;;;5064232;28;20107;-83
2022/04/21 07:17:26;;;;;;;8.77;5.30;;;12.60;94.20;;;;;;5051574;28;20033;-84
2022/04/21 07:19:52;;;;;;;9.68;4.50;;;11.90;93.80;;;;;;5060925;28;20230;-83
2022/04/21 07:22:24;;;;;;;6.30;4.82;;;13.20;93.60;;;;;;5062614;28;20175;-85
2022/04/21 07:24:55;;;;;;;7.40;4.65;;;12.10;92.90;;;;;;5046201;28;20057;-83
2022/04/21 07:27:22;;;;;;;7.57;5.05;;;12.10;92.80;;;;;;5051976;28;20123;-85
2022/04/21 07:29:49;;;;;;;7.60;4.72;;;12.10;92.70;;;;;;5051936;28;20028;-83
2022/04/21 07:32:15;;;;;;;7.10;4.93;;;12.20;92.50;;;;;;5070454;28;20044;-83
2022/04/21 07:34:40;;;;;;;7.72;4.90;;;11.30;91.90;;;;;;5058450;28;20127;-82
2022/04/21 07:37:08;;;;;;;6.75;4.82;;;12.50;92.20;;;;;;5050566;28;20519;-84
2022/04/21 07:39:38;;;;;;;7.32;5.03;;;12.40;91.40;;;;;;5042080;28;20679;-82
2022/04/21 07:42:05;;;;;;;8.05;5.22;;;12.50;91.50;;;;;;5048238;28;20081;-83
2022/04/21 07:44:34;;;;;;;7.50;5.32;;;12.50;91.30;;;;;;5069453;28;20020;-86
2022/04/21 07:46:59;;;;;;;8.02;5.00;;;12.70;91.00;;;;;;5074101;28;20089;-83
2022/04/21 07:54:54;;;;;;;7.07;4.78;;;12.80;90.60;;;;;;5080214;28;20042;-86
2022/04/21 07:57:20;;;;;;;7.28;5.43;;;12.90;90.30;;;;;;5067380;28;20057;-82
2022/04/21 07:59:47;;;;;;;8.10;5.15;;;13.00;90.10;;;;;;5069156;28;20037;-85
2022/04/21 08:02:18;;;;;;;10.55;5.45;;;14.50;90.20;;;;;;5052799;28;20075;-84
2022/04/21 08:04:44;;;;;;;8.90;5.15;;;13.10;89.10;;;;;;5051923;28;20092;-85
2022/04/21 08:07:10;;;;;;;7.25;5.25;;;13.20;88.70;;;;;;5051668;28;20029;-84
2022/04/21 08:09:38;;;;;;;8.10;5.60;;;13.30;88.10;;;;;;5068902;28;20483;-83
2022/04/21 08:12:07;;;;;;;6.82;5.55;;;13.30;88.10;;;;;;5073706;28;20092;-84
2022/04/21 08:14:33;;;;;;;8.90;5.43;;;13.30;87.70;;;;;;5038957;28;24067;-85
2022/04/21 08:16:59;;;;;;;7.18;5.13;;;13.30;87.30;;;;;;5053495;28;20402;-86
2022/04/21 08:19:24;;;;;;;6.20;5.15;;;13.60;87.80;;;;;;5042328;28;20033;-84
2022/04/21 08:21:53;;;;;;;6.72;5.07;;;13.70;87.10;;;;;;5052421;28;20037;-85
2022/04/21 08:32:37;;;;;;;8.02;5.15;;;;;;;;;;5065132;28;20031;-83
2022/04/21 08:35:06;;;;;;;9.02;4.55;;;13.80;84.50;;;;;;5051660;28;20036;-84
2022/04/21 08:37:35;;;;;;;7.85;4.35;;;13.90;85.00;;;;;;5069120;28;20037;-82
2022/04/21 08:40:04;;;;;;;6.32;4.10;;;14.30;83.30;;;;;;5054801;28;20025;-85
2022/04/21 08:42:39;;;;;;;7.43;4.43;;;14.20;83.10;;;;;;5073853;28;20035;-84
2022/04/21 08:45:11;;;;;;;5.03;3.42;;;17.40;84.10;;;;;;5057676;28;20044;-84
2022/04/21 08:47:40;;;;;;;4.88;3.40;;;14.40;81.50;;;;;;5055132;28;20037;-82
2022/04/21 08:50:14;;;;;;;4.22;3.25;;;14.50;80.80;;;;;;5050378;28;20033;-83
2022/04/21 08:52:56;;;;;;;5.07;2.95;;;14.60;80.10;;;;;;5063903;28;20048;-85
2022/04/21 08:55:23;;;;;;;5.28;2.80;;;15.10;79.70;;;;;;5072129;28;20040;-80
2022/04/21 08:57:49;;;;;;;5.25;3.30;;;12.70;78.10;;;;;;5049730;28;20033;-83
2022/04/21 09:00:18;;;;;;;5.85;3.03;;;15.30;80.00;;;;;;5055925;28;20020;-85
2022/04/21 09:02:47;;;;;;;5.13;2.70;;;15.00;79.30;;;;;;5069372;28;20514;-81
2022/04/21 09:05:13;;;;;;;6.45;3.08;;;15.00;77.70;;;;;;5058387;28;20040;-81
2022/04/21 09:07:49;;;;;;;5.85;2.80;;;15.00;77.30;;;;;;5057226;28;20024;-84
2022/04/21 09:10:20;;;;;;;3.63;2.65;;;15.20;76.90;;;;;;5070319;28;20029;-84
2022/04/21 09:12:48;;;;;;;5.25;2.60;;;14.50;76.10;;;;;;5040950;28;20457;-84
2022/04/21 09:15:17;;;;;;;4.82;2.50;;;15.40;75.80;;;;;;5042829;28;20505;-82
2022/04/21 09:17:45;;;;;;;4.35;2.35;;;15.60;75.00;;;;;;5054650;28;20049;-82
2022/04/21 09:20:12;;;;;;;5.63;2.45;;;15.70;74.70;;;;;;5061468;28;20025;-86
2022/04/21 09:22:46;;;;;;;3.20;2.40;;;15.70;74.40;;;;;;5037902;28;20025;-84
2022/04/21 09:25:11;;;;;;;3.45;2.30;;;16.50;74.40;;;;;;5063831;28;20035;-84
2022/04/21 09:27:38;;;;;;;4.70;2.40;;;16.00;73.40;;;;;;5047557;28;20040;-85
2022/04/21 09:30:10;;;;;;;4.97;2.45;;;16.10;73.40;;;;;;5042359;28;20025;-84
2022/04/21 09:32:38;;;;;;;4.78;2.50;;;16.20;72.60;;;;;;5059980;28;20490;-83
2022/04/21 09:35:05;;;;;;;3.95;2.30;;;16.40;72.40;;;;;;5036601;28;20036;-87
2022/04/21 09:37:31;;;;;;;4.40;2.20;;;16.40;72.10;;;;;;5063587;28;20058;-84
2022/04/21 09:40:00;;;;;;;4.82;2.50;;;16.50;71.60;;;;;;5054351;28;20033;-81
2022/04/21 09:42:28;;;;;;;4.07;2.40;;;16.70;71.50;;;;;;5051010;28;20098;-82
2022/04/21 09:47:49;;;;;;;3.78;2.33;;;16.70;70.20;;;;;;5043280;28;20055;-85
2022/04/21 09:50:15;;;;;;;4.07;2.28;;;16.80;71.20;;;;;;5057603;28;20024;-85
2022/04/21 09:52:54;;;;;;;4.15;2.70;;;16.80;69.40;;;;;;5027525;28;20117;-82
2022/04/21 09:55:25;;;;;;;4.57;2.33;;;16.80;69.40;;;;;;5049745;28;20151;-81
2022/04/21 09:58:02;;;;;;;3.95;2.40;;;16.60;70.30;;;;;;5056407;28;20037;-83
2022/04/21 10:00:29;;;;;;;4.18;2.33;;;16.60;70.40;;;;;;5063407;28;20025;-84
2022/04/21 10:02:56;;;;;;;3.80;2.35;;;17.30;69.80;;;;;;5047234;28;20121;-82
2022/04/21 10:05:23;;;;;;;3.53;2.10;;;16.90;69.90;;;;;;5053405;28;20024;-84
2022/04/21 10:07:50;;;;;;;5.15;2.20;;;17.10;68.00;;;;;;5039268;28;20021;-83
2022/04/21 10:10:17;;;;;;;3.67;2.20;;;17.60;68.70;;;;;;5044331;28;20066;-80
2022/04/21 10:12:43;;;;;;;3.92;1.92;;;17.20;68.50;;;;;;5043545;28;20033;-86
2022/04/21 10:15:10;;;;;;;5.90;2.72;;;17.30;68.50;;;;;;5041541;28;20017;-86
2022/04/21 10:17:36;;;;;;;5.28;2.30;;;17.40;67.20;;;;;;5043291;28;20032;-83
2022/04/21 10:20:03;;;;;;;4.53;2.15;;;17.30;67.40;;;;;;5068691;28;20039;-83
2022/04/21 10:22:33;;;;;;;3.38;2.30;;;17.30;68.00;;;;;;5041810;28;20029;-80
2022/04/21 10:24:59;;;;;;;5.63;2.92;;;;;;;;;;5061778;28;20572;-83
2022/04/21 10:27:42;;;;;;;7.07;2.53;;;17.40;67.50;;;;;;5037910;28;20031;-82
2022/04/21 10:30:15;;;;;;;5.28;2.00;;;17.30;67.70;;;;;;5040048;28;20047;-82
2022/04/21 10:32:54;;;;;;;3.90;2.13;;;17.30;68.10;;;;;;5047331;28;20024;-85
2022/04/21 10:35:27;;;;;;;4.70;2.65;;;17.50;67.80;;;;;;5041149;28;20546;-83
2022/04/21 10:38:14;;;;;;;5.93;3.03;;;17.60;67.30;;;;;;5063916;28;20025;-86
2022/04/21 10:40:57;;;;;;;4.63;2.40;;;17.70;67.30;;;;;;5035494;28;20505;-83
2022/04/21 10:43:24;;;;;;;5.22;2.80;;;17.70;66.60;;;;;;5037908;28;20028;-83
2022/04/21 10:46:17;;;;;;;4.28;2.55;;;17.70;66.00;;;;;;5044353;28;20428;-83
2022/04/21 10:48:43;;;;;;;3.38;2.40;;;18.30;66.90;;;;;;5050093;28;20024;-85
2022/04/21 10:51:10;;;;;;;4.55;2.35;;;17.90;66.00;;;;;;5056867;28;20494;-84
2022/04/21 10:59:29;;;;;;;4.45;2.30;;;18.10;65.70;;;;;;5060932;28;20525;-85
2022/04/21 11:01:55;;;;;;;4.40;1.98;;;18.10;65.10;;;;;;5052028;28;20151;-87
2022/04/21 11:04:23;;;;;;;4.20;2.17;;;18.20;64.80;;;;;;5051977;28;20029;-84
2022/04/21 11:07:11;;;;;;;2.72;1.98;;;18.40;64.50;;;;;;5063717;28;20116;-81
2022/04/21 11:09:47;;;;;;;3.95;2.22;;;18.00;64.60;;;;;;5065387;28;20071;-88
2022/04/21 11:12:16;;;;;;;4.85;2.47;;;18.10;64.40;;;;;;5046449;28;20079;-83
2022/04/21 11:14:42;;;;;;;4.03;2.20;;;18.20;64.10;;;;;;5050140;28;20389;-85
2022/04/21 11:17:09;;;;;;;3.15;2.20;;;18.30;63.50;;;;;;5041059;28;21428;-84
2022/04/21 11:19:44;;;;;;;4.90;2.25;;;18.00;63.20;;;;;;5060820;28;20040;-86
2022/04/21 11:22:12;;;;;;;5.35;1.85;;;17.80;63.80;;;;;;5040268;28;20134;-84
2022/04/21 11:24:59;;;;;;;4.43;2.20;;;17.90;63.80;;;;;;5040272;28;20032;-86
2022/04/21 11:27:26;;;;;;;5.45;1.90;;;18.20;62.90;;;;;;5059476;28;20120;-84
2022/04/21 11:29:57;;;;;;;2.95;1.83;;;18.00;62.80;;;;;;5068787;28;20470;-82
2022/04/21 11:32:23;;;;;;;4.13;1.80;;;18.00;62.40;;;;;;5042280;28;20025;-82
2022/04/21 11:35:16;;;;;;;3.78;1.60;;;18.00;61.80;;;;;;5042459;28;20040;-84
2022/04/21 11:37:54;;;;;;;3.05;1.42;;;18.10;61.70;;;;;;5048052;28;20041;-83
2022/04/21 11:40:42;;;;;;;2.30;1.42;;;18.00;62.40;;;;;;5060157;28;20036;-83
2022/04/21 11:43:17;;;;;;;3.25;2.00;;;18.10;61.50;;;;;;5043792;28;20025;-83
2022/04/21 11:45:53;;;;;;;3.90;2.00;;;18.10;61.70;;;;;;5054135;28;20017;-84
2022/04/21 11:48:20;;;;;;;3.33;1.92;;;18.00;61.90;;;;;;5050546;28;20032;-82
2022/04/21 11:50:47;;;;;;;2.80;1.75;;;18.20;62.10;;;;;;5044600;28;20096;-86
2022/04/21 11:53:15;;;;;;;5.03;1.80;;;18.40;61.60;;;;;;5064279;28;20037;-86
2022/04/21 11:55:41;;;;;;;3.60;2.03;;;18.40;60.30;;;;;;5063915;28;20036;-86
2022/04/21 11:58:07;;;;;;;3.97;1.90;;;18.60;60.70;;;;;;5069365;28;20024;-85
2022/04/21 12:08:48;;;;;;;7.13;2.00;;;18.90;59.70;;;;;;5067835;28;20052;-87
2022/04/21 12:11:17;;;;;;;3.33;1.80;;;19.00;59.70;;;;;;5075769;28;20025;-87
2022/04/21 12:13:44;;;;;;;4.63;1.75;;;19.10;59.70;;;;;;5071765;28;20029;-83
2022/04/21 12:16:36;;;;;;;3.30;1.70;;;19.10;59.30;;;;;;5072935;28;20028;-85
2022/04/21 12:19:33;;;;;;;4.43;1.90;;;19.20;59.20;;;;;;5028248;28;20060;-86
2022/04/21 12:22:02;;;;;;;6.97;2.15;;;19.00;59.30;;;;;;5062169;28;20029;-88
2022/04/21 12:24:30;;;;;;;3.28;1.70;;;19.10;59.20;;;;;;5075083;28;20008;-84
2022/04/21 12:26:57;;;;;;;3.65;1.50;;;18.80;59.60;;;;;;5062797;28;20606;-85
2022/04/21 12:29:23;;;;;;;5.35;2.05;;;18.60;61.00;;;;;;5062119;28;20063;-85
2022/04/21 12:31:54;;;;;;;3.67;2.30;;;18.60;60.80;;;;;;5058786;28;20060;-86
2022/04/21 12:34:22;;;;;;;2.95;1.63;;;18.60;60.00;;;;;;5049984;28;20749;-84
2022/04/21 12:36:56;;;;;;;3.08;1.48;;;18.70;59.90;;;;;;5045886;28;20455;-86
2022/04/21 12:39:22;;;;;;;3.92;1.80;;;18.70;60.70;;;;;;5057914;28;20040;-88
2022/04/21 12:41:49;;;;;;;3.85;2.13;;;;;;;;;;5047262;28;20024;-87
2022/04/21 12:44:17;;;;;;;4.18;1.90;;;18.90;59.50;;;;;;5058921;28;20020;-86
2022/04/21 12:47:09;;;;;;;3.72;2.00;;;18.80;60.70;;;;;;5057835;28;20092;-89
2022/04/21 12:50:03;;;;;;;4.47;1.80;;;18.60;60.50;;;;;;5033719;28;20044;-83
2022/04/21 12:52:43;;;;;;;2.88;1.50;;;18.70;60.30;;;;;;5065985;28;20028;-88
2022/04/21 12:55:11;;;;;;;3.17;1.73;;;17.80;60.30;;;;;;5066827;28;20027;-87
2022/04/21 12:57:38;;;;;;;6.65;3.70;;;18.30;61.00;;;;;;5049823;28;20036;-84
2022/04/21 13:00:09;;;;;;;7.30;2.80;;;18.30;61.20;;;;;;5047915;28;20021;-86
2022/04/21 13:02:36;;;;;;;3.92;1.90;;;20.30;62.00;;;;;;5044110;28;20017;-87
2022/04/21 13:05:02;;;;;;;2.63;1.50;;;18.60;61.30;;;;;;5042260;28;20076;-87
2022/04/21 16:31:27;;;;;;;3.28;1.92;;;17.40;64.40;;;;;;5047877;28;20060;-80
2022/04/21 19:11:58;;;;;;;3.45;2.17;;;15.80;74.30;;;;;;5046434;28;20039;-85
2022/04/21 19:14:24;;;;;;;5.22;2.03;;;14.80;74.00;;;;;;5060828;28;20021;-83
2022/04/21 19:16:51;;;;;;;3.10;1.98;;;14.40;74.10;;;;;;5042279;28;20047;-87
2022/04/21 19:19:19;;;;;;;4.45;1.90;;;14.40;74.40;;;;;;5046135;28;20021;-84
2022/04/21 19:21:44;;;;;;;5.35;1.83;;;14.40;74.90;;;;;;5043697;28;20037;-86
2022/04/21 19:24:13;;;;;;;5.07;2.70;;;14.20;74.60;;;;;;5042554;28;20055;-86
2022/04/21 19:26:44;;;;;;;6.45;2.20;;;14.20;75.00;;;;;;5051302;28;20049;-84
2022/04/21 19:29:10;;;;;;;3.92;2.38;;;14.20;75.20;;;;;;5033315;28;20103;-85
2022/04/21 19:31:37;;;;;;;5.53;2.30;;;14.20;75.50;;;;;;5045390;28;20406;-86
2022/04/21 19:34:09;;;;;;;4.30;2.58;;;14.20;75.70;;;;;;5047607;28;20033;-83
2022/04/21 19:36:35;;;;;;;4.00;2.45;;;14.10;76.00;;;;;;5035957;28;20025;-83
2022/04/21 19:39:03;;;;;;;6.00;3.17;;;14.10;76.40;;;;;;5030009;28;20025;-84
2022/04/21 19:41:29;;;;;;;9.82;3.97;;;14.90;76.90;;;;;;5028679;28;21228;-84
2022/04/21 19:43:55;;;;;;;5.18;3.00;;;14.00;76.60;;;;;;5040379;28;20033;-83
2022/04/21 19:46:21;;;;;;;7.40;4.05;;;14.20;76.50;;;;;;5046213;28;20537;-85
2022/04/21 19:48:47;;;;;;;4.88;3.03;;;14.10;76.80;;;;;;5045685;28;20120;-85
2022/04/21 19:51:13;;;;;;;6.28;3.72;;;14.00;77.10;;;;;;5032633;28;20030;-83
2022/04/21 19:53:39;;;;;;;7.28;3.03;;;;;;;;;;5026058;28;20167;-84
2022/04/21 19:56:05;;;;;;;7.28;3.10;;;13.90;77.10;;;;;;5065746;28;20096;-84
2022/04/21 19:58:32;;;;;;;3.95;2.45;;;13.90;77.90;;;;;;5047282;28;20127;-82
2022/04/21 20:00:58;;;;;;;4.47;2.20;;;14.80;78.50;;;;;;5037410;28;20028;-85
2022/04/21 20:03:25;;;;;;;4.72;3.03;;;14.00;78.10;;;;;;5028159;28;20029;-86
2022/04/21 20:08:54;;;;;;;5.22;2.38;;;13.90;77.70;;;;;;5047146;28;20110;-82
2022/04/21 20:11:29;;;;;;;3.60;2.40;;;13.80;78.00;;;;;;5047873;28;20021;-84
2022/04/21 20:13:55;;;;;;;4.90;2.55;;;13.80;78.00;;;;;;5030077;28;20509;-85